Time;durP1;ratioP1;P1;durP2;ratioP2;P2;SDS_P1;SDS_P2;PMS_P1;PMS_P2;Temp;Humidity;BMP_temperature;BMP_pressure;BME280_temperature;BME280_humidity;BME280_pressure;Samples;Min_cycle;Max_cycle;Signal;HPM_P1;HPM_P2
2024/03/10 00:02:15;;;;;;;38.03;23.55;;;;;;;;;;4991187;28;20109;-76
2024/03/10 00:04:41;;;;;;;37.35;24.95;;;;;;;;;;4990278;28;20022;-77
2024/03/10 00:07:06;;;;;;;35.63;22.00;;;;;;;;;;4990765;28;20035;-76
2024/03/10 00:09:31;;;;;;;35.63;22.50;;;;;;;;;;4990714;28;20033;-76
2024/03/10 00:11:56;;;;;;;38.67;24.42;;;;;;;;;;4992725;28;20066;-75
2024/03/10 00:14:22;;;;;;;38.17;23.58;;;;;;;;;;4990420;28;20137;-75
2024/03/10 00:16:47;;;;;;;37.45;22.77;;;;;;;;;;4990419;28;20046;-75
2024/03/10 00:19:13;;;;;;;37.35;23.90;;;;;;;;;;4987086;28;20034;-76
2024/03/10 00:21:38;;;;;;;35.50;22.60;;;;;;;;;;4992451;28;20175;-76
2024/03/10 00:24:04;;;;;;;36.65;22.90;;;;;;;;;;4990192;28;20036;-75
2024/03/10 00:26:30;;;;;;;36.00;23.38;;;;;;;;;;4990837;28;20430;-75
2024/03/10 00:28:55;;;;;;;34.92;23.80;;;;;;;;;;4992919;28;20031;-76
2024/03/10 00:31:20;;;;;;;37.58;24.75;;;;;;;;;;4996363;28;20037;-76
2024/03/10 00:33:46;;;;;;;35.60;22.73;;;;;;;;;;4989921;28;20034;-75
2024/03/10 00:36:11;;;;;;;36.10;23.15;;;;;;;;;;5003557;28;20035;-75
2024/03/10 00:38:37;;;;;;;37.65;22.42;;;;;;;;;;4990433;28;20034;-75
2024/03/10 00:41:04;;;;;;;36.90;23.17;;;;;;;;;;4993458;28;20029;-76
2024/03/10 00:43:29;;;;;;;36.72;22.75;;;;;;;;;;4989982;28;20030;-75
2024/03/10 00:45:54;;;;;;;35.35;22.65;;;;;;;;;;4995610;28;20403;-76
2024/03/10 00:48:20;;;;;;;34.75;23.25;;;;;;;;;;4994151;28;20027;-76
2024/03/10 00:50:46;;;;;;;38.25;23.80;;;;;;;;;;4994247;28;20038;-76
2024/03/10 00:53:12;;;;;;;35.20;22.38;;;;;;;;;;4993599;28;20101;-76
2024/03/10 00:55:37;;;;;;;32.92;21.98;;;;;;;;;;4993742;28;20030;-75
2024/03/10 00:58:02;;;;;;;34.35;22.92;;;;;;;;;;4993684;28;20026;-75
2024/03/10 01:00:28;;;;;;;35.25;22.88;;;;;;;;;;4993799;28;20511;-75
2024/03/10 01:02:55;;;;;;;34.50;23.17;;;;;;;;;;4994447;28;20113;-76
2024/03/10 01:05:20;;;;;;;36.45;23.25;;;;;;;;;;4992382;28;20124;-75
2024/03/10 01:07:45;;;;;;;33.88;21.60;;;;;;;;;;4993570;28;20479;-75
2024/03/10 01:10:12;;;;;;;32.45;20.83;;;;;;;;;;4993721;28;20434;-75
2024/03/10 01:12:40;;;;;;;32.47;21.90;;;;;;;;;;4994275;28;20466;-75
2024/03/10 01:15:05;;;;;;;32.63;20.98;;;;;;;;;;4991668;28;20093;-76
2024/03/10 01:17:31;;;;;;;31.30;20.63;;;;;;;;;;4993716;28;20490;-75
2024/03/10 01:19:56;;;;;;;31.80;20.05;;;;;;;;;;4992088;28;20039;-75
2024/03/10 01:22:22;;;;;;;32.15;21.30;;;;;;;;;;4993850;28;20109;-75
2024/03/10 01:24:47;;;;;;;33.78;22.42;;;;;;;;;;4993050;28;20093;-76
2024/03/10 01:27:12;;;;;;;29.52;19.70;;;;;;;;;;4993464;28;20018;-75
2024/03/10 01:29:37;;;;;;;33.33;21.00;;;;;;;;;;4993213;28;20033;-76
2024/03/10 01:32:03;;;;;;;34.22;22.60;;;;;;;;;;4994578;28;20034;-76
2024/03/10 01:34:28;;;;;;;30.83;20.65;;;;;;;;;;4991895;28;20104;-76
2024/03/10 01:36:53;;;;;;;35.88;22.83;;;;;;;;;;4992956;28;20034;-76
2024/03/10 01:39:19;;;;;;;33.03;20.90;;;;;;;;;;4994905;28;20038;-76
2024/03/10 01:41:45;;;;;;;35.38;21.85;;;;;;;;;;4995091;28;20042;-75
2024/03/10 01:44:10;;;;;;;34.85;22.40;;;;;;;;;;4996713;28;20045;-76
2024/03/10 01:46:36;;;;;;;36.33;23.77;;;;;;;;;;4993091;28;20057;-75
2024/03/10 01:49:03;;;;;;;34.33;22.73;;;;;;;;;;4992892;28;20073;-75
2024/03/10 01:51:28;;;;;;;32.65;20.92;;;;;;;;;;4994786;28;20034;-75
2024/03/10 01:53:55;;;;;;;34.38;21.17;;;;;;;;;;4991168;28;20545;-76
2024/03/10 01:56:20;;;;;;;34.88;22.00;;;;;;;;;;4992835;28;20519;-76
2024/03/10 01:58:46;;;;;;;31.30;20.52;;;;;;;;;;4992547;28;20047;-75
2024/03/10 02:01:13;;;;;;;35.75;22.15;;;;;;;;;;4993080;28;20037;-75
2024/03/10 02:03:38;;;;;;;29.80;19.75;;;;;;;;;;4988734;28;20026;-75
2024/03/10 02:06:04;;;;;;;33.28;21.23;;;;;;;;;;4993889;28;20121;-74
2024/03/10 02:08:30;;;;;;;34.83;21.98;;;;;;;;;;4992714;28;20038;-75
2024/03/10 02:10:55;;;;;;;36.65;23.60;;;;;;;;;;4993754;28;20038;-75
2024/03/10 02:13:21;;;;;;;36.88;22.88;;;;;;;;;;4989792;28;20034;-75
2024/03/10 02:16:00;;;;;;;37.88;23.20;;;;;;;;;;4990898;28;20124;-75
2024/03/10 02:18:26;;;;;;;30.52;19.92;;;;;;;;;;4992534;28;20567;-75
2024/03/10 02:20:52;;;;;;;35.95;23.45;;;;;;;;;;4993623;28;20499;-76
2024/03/10 02:23:19;;;;;;;38.75;24.95;;;;;;;;;;4992014;28;20023;-75
2024/03/10 02:25:45;;;;;;;32.97;20.90;;;;;;;;;;4991831;28;20101;-75
2024/03/10 02:28:20;;;;;;;32.15;20.75;;;;;;;;;;4992248;28;20034;-75
2024/03/10 02:30:58;;;;;;;33.13;21.02;;;;;;;;;;4991010;28;20700;-75
2024/03/10 02:47:12;;;;;;;32.35;20.63;;;;;;;;;;4993941;28;20026;-75
2024/03/10 02:49:37;;;;;;;36.40;23.02;;;;;;;;;;4994643;28;20491;-76
2024/03/10 02:52:03;;;;;;;35.92;23.63;;;;;;;;;;4993735;28;20089;-75
2024/03/10 02:54:28;;;;;;;31.60;20.67;;;;;;;;;;4991644;28;20081;-75
2024/03/10 02:56:54;;;;;;;33.05;20.80;;;;;;;;;;4990091;28;20041;-75
2024/03/10 02:59:19;;;;;;;34.83;21.50;;;;;;;;;;4991712;28;20035;-75
2024/03/10 03:01:46;;;;;;;33.13;22.23;;;;;;;;;;4995404;28;20054;-76
2024/03/10 03:04:11;;;;;;;35.05;22.15;;;;;;;;;;5001720;28;20109;-75
2024/03/10 03:06:36;;;;;;;37.80;23.35;;;;;;;;;;4991530;28;20109;-75
2024/03/10 03:09:04;;;;;;;35.58;22.35;;;;;;;;;;4991437;28;20530;-76
2024/03/10 03:11:30;;;;;;;36.55;22.63;;;;;;;;;;4997438;28;20058;-76
2024/03/10 03:13:56;;;;;;;33.50;21.33;;;;;;;;;;4991175;28;20030;-75
2024/03/10 03:16:21;;;;;;;34.83;22.75;;;;;;;;;;4991410;28;20033;-75
2024/03/10 03:18:47;;;;;;;33.40;21.65;;;;;;;;;;4991169;28;20034;-76
2024/03/10 03:21:12;;;;;;;37.80;23.70;;;;;;;;;;4995750;28;20430;-75
2024/03/10 03:23:37;;;;;;;39.53;24.80;;;;;;;;;;4990920;28;20026;-75
2024/03/10 03:26:03;;;;;;;35.38;22.88;;;;;;;;;;4990689;28;20080;-75
2024/03/10 03:28:28;;;;;;;40.53;24.05;;;;;;;;;;4991329;28;20112;-75
2024/03/10 03:30:55;;;;;;;34.05;21.50;;;;;;;;;;4992510;28;20030;-75
2024/03/10 03:33:20;;;;;;;36.20;22.65;;;;;;;;;;4993053;28;20108;-75
2024/03/10 03:35:46;;;;;;;33.97;23.25;;;;;;;;;;4990678;28;20121;-76
2024/03/10 03:38:11;;;;;;;36.45;22.45;;;;;;;;;;4991127;28;20033;-76
2024/03/10 03:40:37;;;;;;;37.35;22.70;;;;;;;;;;4992749;28;20065;-76
2024/03/10 03:43:02;;;;;;;39.38;22.90;;;;;;;;;;4993118;28;20034;-76
2024/03/10 03:45:27;;;;;;;38.28;25.08;;;;;;;;;;5000908;28;20041;-76
2024/03/10 03:47:52;;;;;;;39.10;23.88;;;;;;;;;;4990757;28;20045;-75
2024/03/10 03:50:18;;;;;;;36.17;22.92;;;;;;;;;;4993457;28;20037;-75
2024/03/10 03:52:43;;;;;;;38.33;22.75;;;;;;;;;;4989140;28;20034;-77
2024/03/10 03:55:10;;;;;;;34.25;21.55;;;;;;;;;;4990545;28;20030;-76
2024/03/10 03:57:36;;;;;;;31.60;21.02;;;;;;;;;;4987243;28;20026;-76
2024/03/10 04:00:05;;;;;;;32.30;20.30;;;;;;;;;;4990649;28;20061;-76
2024/03/10 04:02:32;;;;;;;36.30;22.40;;;;;;;;;;4993757;28;20235;-75
2024/03/10 04:04:57;;;;;;;32.20;20.88;;;;;;;;;;4990166;28;20085;-75
2024/03/10 04:07:23;;;;;;;36.97;23.80;;;;;;;;;;4990843;28;20081;-75
2024/03/10 04:09:48;;;;;;;35.05;21.05;;;;;;;;;;4990412;28;20035;-75
2024/03/10 04:12:13;;;;;;;40.85;25.13;;;;;;;;;;4992691;28;20027;-75
2024/03/10 04:14:38;;;;;;;34.22;21.27;;;;;;;;;;4990098;28;20101;-75
2024/03/10 04:17:04;;;;;;;36.22;21.63;;;;;;;;;;4994575;28;20114;-75
2024/03/10 04:19:30;;;;;;;35.70;21.88;;;;;;;;;;4993476;28;20027;-76
2024/03/10 04:21:55;;;;;;;36.65;22.33;;;;;;;;;;4998549;28;20406;-76
2024/03/10 04:24:23;;;;;;;35.72;21.45;;;;;;;;;;4996288;28;20037;-76
2024/03/10 04:26:49;;;;;;;32.70;21.38;;;;;;;;;;4994335;28;20403;-76
2024/03/10 04:29:14;;;;;;;34.97;21.48;;;;;;;;;;4994470;28;20037;-76
2024/03/10 04:31:40;;;;;;;34.15;22.25;;;;;;;;;;5000255;28;20490;-76
2024/03/10 04:34:05;;;;;;;33.95;20.38;;;;;;;;;;4990833;28;20557;-76
2024/03/10 04:36:31;;;;;;;33.85;20.60;;;;;;;;;;4994281;28;20415;-75
2024/03/10 04:38:56;;;;;;;40.97;24.40;;;;;;;;;;4994142;28;20042;-75
2024/03/10 04:41:22;;;;;;;40.10;24.52;;;;;;;;;;4998383;28;20093;-75
2024/03/10 04:43:47;;;;;;;37.67;24.10;;;;;;;;;;4993502;28;20109;-76
2024/03/10 04:46:12;;;;;;;32.85;21.70;;;;;;;;;;4997229;28;20025;-75
2024/03/10 04:48:38;;;;;;;34.22;22.23;;;;;;;;;;4993834;28;20501;-75
2024/03/10 04:51:03;;;;;;;35.83;21.75;;;;;;;;;;4995417;28;20026;-74
2024/03/10 04:53:28;;;;;;;37.63;21.85;;;;;;;;;;4994305;28;20038;-75
2024/03/10 04:55:54;;;;;;;36.25;21.75;;;;;;;;;;4993551;28;20042;-76
2024/03/10 04:58:20;;;;;;;32.30;20.23;;;;;;;;;;4993987;28;20540;-75
2024/03/10 05:00:45;;;;;;;37.45;24.23;;;;;;;;;;4995381;28;20056;-76
2024/03/10 05:03:10;;;;;;;36.78;21.80;;;;;;;;;;4995970;28;20080;-75
2024/03/10 05:05:39;;;;;;;36.45;22.50;;;;;;;;;;4993570;28;20034;-75
2024/03/10 05:08:04;;;;;;;37.97;22.83;;;;;;;;;;4993043;28;20062;-75
2024/03/10 05:10:29;;;;;;;35.20;22.48;;;;;;;;;;4996470;28;20073;-76
2024/03/10 05:12:55;;;;;;;38.63;22.65;;;;;;;;;;4996655;28;20041;-77
2024/03/10 05:15:20;;;;;;;39.13;23.90;;;;;;;;;;4993511;28;20466;-76
2024/03/10 05:17:46;;;;;;;37.80;23.02;;;;;;;;;;4993411;28;20093;-75
2024/03/10 05:20:14;;;;;;;38.78;22.17;;;;;;;;;;4993721;28;20038;-75
2024/03/10 05:22:39;;;;;;;38.08;22.33;;;;;;;;;;4996666;28;20026;-75
2024/03/10 05:25:05;;;;;;;37.67;22.73;;;;;;;;;;4993066;28;20081;-76
2024/03/10 05:27:30;;;;;;;37.58;22.40;;;;;;;;;;4993357;28;20530;-75
2024/03/10 05:29:55;;;;;;;34.70;20.90;;;;;;;;;;4993153;28;20033;-75
2024/03/10 05:32:20;;;;;;;32.45;20.40;;;;;;;;;;4995208;28;20035;-76
2024/03/10 05:34:46;;;;;;;38.10;23.05;;;;;;;;;;4992937;28;20453;-77
2024/03/10 05:37:11;;;;;;;38.65;22.95;;;;;;;;;;4993329;28;20061;-75
2024/03/10 05:39:37;;;;;;;37.55;22.48;;;;;;;;;;4994464;28;20026;-76
2024/03/10 05:42:05;;;;;;;39.13;22.98;;;;;;;;;;4996704;28;20038;-75
2024/03/10 05:44:31;;;;;;;35.92;21.88;;;;;;;;;;4993011;28;20246;-75
2024/03/10 05:46:56;;;;;;;37.13;20.45;;;;;;;;;;4992743;28;20037;-75
2024/03/10 05:49:22;;;;;;;37.42;20.92;;;;;;;;;;4993011;28;20034;-75
2024/03/10 05:51:47;;;;;;;34.10;20.73;;;;;;;;;;4998501;28;20394;-76
2024/03/10 05:54:13;;;;;;;40.10;23.23;;;;;;;;;;4992862;28;20509;-75
2024/03/10 05:56:39;;;;;;;32.05;20.88;;;;;;;;;;4991599;28;20113;-75
2024/03/10 05:59:04;;;;;;;37.55;22.23;;;;;;;;;;4988303;28;20048;-75
2024/03/10 06:01:29;;;;;;;33.63;20.40;;;;;;;;;;4991101;28;20117;-75
2024/03/10 06:03:54;;;;;;;36.17;21.15;;;;;;;;;;4992073;28;20066;-75
2024/03/10 06:06:21;;;;;;;35.45;23.10;;;;;;;;;;4991000;28;20052;-75
2024/03/10 06:08:46;;;;;;;36.95;23.27;;;;;;;;;;4991441;28;20378;-76
2024/03/10 06:11:11;;;;;;;35.67;21.35;;;;;;;;;;5007784;28;20122;-76
2024/03/10 06:13:38;;;;;;;35.00;21.05;;;;;;;;;;4992888;28;20085;-76
2024/03/10 06:16:05;;;;;;;37.58;22.88;;;;;;;;;;4992023;28;20042;-76
2024/03/10 06:25:22;;;;;;;37.30;22.65;;;;;;;;;;4987794;28;20038;-76
2024/03/10 06:26:47;;;;;;;35.60;20.88;;;;;;;;;;4988174;28;20522;-77
2024/03/10 06:29:12;;;;;;;34.50;20.83;;;;;;;;;;4991720;28;20030;-75
2024/03/10 06:31:38;;;;;;;34.80;22.50;;;;;;;;;;4992253;28;20033;-76
2024/03/10 06:34:04;;;;;;;36.45;22.08;;;;;;;;;;4982272;28;20080;-77
2024/03/10 06:36:29;;;;;;;33.60;21.90;;;;;;;;;;4982150;28;20030;-76
2024/03/10 06:38:55;;;;;;;36.90;22.92;;;;;;;;;;4982462;28;20034;-76
2024/03/10 06:41:21;;;;;;;34.97;22.95;;;;;;;;;;4982792;28;20157;-75
2024/03/10 06:43:47;;;;;;;32.28;20.30;;;;;;;;;;4987940;28;20555;-77
2024/03/10 06:46:13;;;;;;;33.08;19.80;;;;;;;;;;4982363;28;20057;-76
2024/03/10 06:48:38;;;;;;;36.45;21.27;;;;;;;;;;4989792;28;20034;-75
2024/03/10 06:51:05;;;;;;;35.20;23.42;;;;;;;;;;4989214;28;20113;-76
2024/03/10 06:53:31;;;;;;;36.85;22.55;;;;;;;;;;4991968;28;20038;-76
2024/03/10 06:55:58;;;;;;;35.10;22.27;;;;;;;;;;4985412;28;20027;-75
2024/03/10 06:58:23;;;;;;;37.35;23.67;;;;;;;;;;4985030;28;20035;-75
2024/03/10 07:00:48;;;;;;;35.78;21.75;;;;;;;;;;4988202;28;20042;-76
2024/03/10 07:03:13;;;;;;;31.73;19.50;;;;;;;;;;4991921;28;20026;-76
2024/03/10 07:05:41;;;;;;;33.00;21.00;;;;;;;;;;4990585;28;20080;-76
2024/03/10 07:08:07;;;;;;;33.30;21.02;;;;;;;;;;4989818;28;20518;-75
2024/03/10 07:10:35;;;;;;;35.42;22.52;;;;;;;;;;4999170;28;20490;-75
2024/03/10 07:13:00;;;;;;;31.85;20.55;;;;;;;;;;4987077;28;20030;-76
2024/03/10 07:15:26;;;;;;;33.65;20.90;;;;;;;;;;4991216;28;20114;-76
2024/03/10 07:17:51;;;;;;;33.50;21.60;;;;;;;;;;4991186;28;20065;-76
2024/03/10 07:20:16;;;;;;;31.83;21.15;;;;;;;;;;4991132;28;20028;-76
2024/03/10 07:22:41;;;;;;;31.17;20.60;;;;;;;;;;4993536;28;20030;-76
2024/03/10 07:25:08;;;;;;;36.85;21.98;;;;;;;;;;4989465;28;20096;-76
2024/03/10 07:27:33;;;;;;;31.63;20.20;;;;;;;;;;4990784;28;20030;-76
2024/03/10 07:29:58;;;;;;;32.40;21.55;;;;;;;;;;4990736;28;20446;-75
2024/03/10 07:32:26;;;;;;;31.80;21.90;;;;;;;;;;4992618;28;20082;-75
2024/03/10 07:34:51;;;;;;;33.78;20.13;;;;;;;;;;4987658;28;20042;-76
2024/03/10 07:37:16;;;;;;;33.78;21.88;;;;;;;;;;4986361;28;20419;-76
2024/03/10 07:39:42;;;;;;;31.65;21.52;;;;;;;;;;4987938;28;20041;-76
2024/03/10 07:42:07;;;;;;;29.35;20.45;;;;;;;;;;4991990;28;20045;-76
2024/03/10 07:44:32;;;;;;;29.90;19.92;;;;;;;;;;4989478;28;20026;-76
2024/03/10 07:46:58;;;;;;;30.13;20.58;;;;;;;;;;4994116;28;20037;-76
2024/03/10 07:49:24;;;;;;;28.55;20.30;;;;;;;;;;4990074;28;20033;-75
2024/03/10 07:51:49;;;;;;;34.40;21.17;;;;;;;;;;4995156;28;20026;-75
2024/03/10 07:54:15;;;;;;;33.33;20.27;;;;;;;;;;4990329;28;20399;-75
2024/03/10 07:56:40;;;;;;;30.67;19.33;;;;;;;;;;4990847;28;20522;-75
2024/03/10 07:59:07;;;;;;;31.90;19.20;;;;;;;;;;4990517;28;20038;-75
2024/03/10 08:01:32;;;;;;;28.85;19.77;;;;;;;;;;4991841;28;20514;-76
2024/03/10 08:03:57;;;;;;;29.35;19.95;;;;;;;;;;4990349;28;20101;-75
2024/03/10 08:06:24;;;;;;;26.98;18.13;;;;;;;;;;4990741;28;20077;-77
2024/03/10 08:08:52;;;;;;;28.52;19.00;;;;;;;;;;4989689;28;20462;-76
2024/03/10 08:11:17;;;;;;;26.73;18.38;;;;;;;;;;4994831;28;20034;-76
2024/03/10 08:13:44;;;;;;;24.17;16.75;;;;;;;;;;4988847;28;20073;-78
2024/03/10 08:16:09;;;;;;;29.15;19.15;;;;;;;;;;4987975;28;20026;-77
2024/03/10 08:18:35;;;;;;;27.17;17.88;;;;;;;;;;4990641;28;20562;-77
2024/03/10 08:21:00;;;;;;;26.95;18.85;;;;;;;;;;4991892;28;20030;-76
2024/03/10 08:23:25;;;;;;;28.98;18.73;;;;;;;;;;4992500;28;20450;-77
2024/03/10 08:25:53;;;;;;;28.80;18.55;;;;;;;;;;4991113;28;20076;-77
2024/03/10 08:28:19;;;;;;;24.40;17.02;;;;;;;;;;4989507;28;20109;-77
2024/03/10 08:30:45;;;;;;;25.40;16.52;;;;;;;;;;4989569;28;20117;-76
2024/03/10 08:33:10;;;;;;;25.52;17.60;;;;;;;;;;4989578;28;20041;-75
2024/03/10 08:35:37;;;;;;;23.77;16.75;;;;;;;;;;4987161;28;20030;-76
2024/03/10 08:38:05;;;;;;;22.95;16.27;;;;;;;;;;4987841;28;20023;-76
2024/03/10 08:40:34;;;;;;;25.40;16.77;;;;;;;;;;4986625;28;20038;-76
2024/03/10 08:42:59;;;;;;;24.63;16.33;;;;;;;;;;4990013;28;20491;-76
2024/03/10 08:45:25;;;;;;;22.70;16.27;;;;;;;;;;4980418;28;20030;-75
2024/03/10 08:47:50;;;;;;;22.65;15.65;;;;;;;;;;4985187;28;20030;-76
2024/03/10 08:50:16;;;;;;;22.67;16.13;;;;;;;;;;4988406;28;20406;-75
2024/03/10 08:52:41;;;;;;;22.33;15.15;;;;;;;;;;4990322;28;20038;-76
2024/03/10 08:55:07;;;;;;;23.20;15.93;;;;;;;;;;4989140;28;20031;-76
2024/03/10 08:57:33;;;;;;;21.70;15.30;;;;;;;;;;4988343;28;20033;-75
2024/03/10 09:00:00;;;;;;;22.98;15.50;;;;;;;;;;4985703;28;20053;-76
2024/03/10 09:02:25;;;;;;;24.05;15.68;;;;;;;;;;4994230;28;20038;-76
2024/03/10 09:04:52;;;;;;;20.27;14.85;;;;;;;;;;4993049;28;20045;-76
2024/03/10 09:07:17;;;;;;;22.75;16.52;;;;;;;;;;4992292;28;20454;-76
2024/03/10 09:09:42;;;;;;;19.17;14.32;;;;;;;;;;4993685;28;20018;-76
2024/03/10 09:12:08;;;;;;;19.90;14.13;;;;;;;;;;4996107;28;20038;-76
2024/03/10 09:14:33;;;;;;;21.70;15.30;;;;;;;;;;4993520;28;20077;-77
2024/03/10 09:17:00;;;;;;;22.20;15.70;;;;;;;;;;4990755;28;20050;-77
2024/03/10 09:19:25;;;;;;;19.80;13.68;;;;;;;;;;4991882;28;20030;-77
2024/03/10 09:21:50;;;;;;;19.30;12.88;;;;;;;;;;4994602;28;20087;-77
2024/03/10 09:24:15;;;;;;;18.92;13.85;;;;;;;;;;4993021;28;20380;-77
2024/03/10 09:26:41;;;;;;;17.90;13.20;;;;;;;;;;4993616;28;20474;-76
2024/03/10 09:29:06;;;;;;;21.17;13.65;;;;;;;;;;4993369;28;20030;-77
2024/03/10 09:31:31;;;;;;;16.92;12.23;;;;;;;;;;4993834;28;20038;-77
2024/03/10 09:33:59;;;;;;;16.67;12.40;;;;;;;;;;4994049;28;20034;-76
2024/03/10 09:36:24;;;;;;;15.75;12.80;;;;;;;;;;4993143;28;20057;-77
2024/03/10 09:38:52;;;;;;;17.08;12.95;;;;;;;;;;4993145;28;20038;-77
2024/03/10 09:41:17;;;;;;;15.27;11.25;;;;;;;;;;4994452;28;20034;-76
2024/03/10 09:43:44;;;;;;;16.30;11.82;;;;;;;;;;4995055;28;20032;-77
2024/03/10 09:46:13;;;;;;;15.95;11.73;;;;;;;;;;4992252;28;20520;-77
2024/03/10 09:48:42;;;;;;;16.77;11.80;;;;;;;;;;4993146;28;20077;-77
2024/03/10 09:51:08;;;;;;;16.83;12.38;;;;;;;;;;4994270;28;20117;-77
2024/03/10 09:53:34;;;;;;;16.70;11.55;;;;;;;;;;4993021;28;20109;-77
2024/03/10 09:55:59;;;;;;;14.15;10.75;;;;;;;;;;4992549;28;20045;-77
2024/03/10 09:58:38;;;;;;;15.13;10.73;;;;;;;;;;4992900;28;20038;-76
2024/03/10 10:01:11;;;;;;;14.05;10.25;;;;;;;;;;4993799;28;20037;-76
2024/03/10 10:03:37;;;;;;;13.40;10.05;;;;;;;;;;5001448;28;20022;-76
2024/03/10 10:06:04;;;;;;;18.02;11.80;;;;;;;;;;4991388;28;20403;-77
2024/03/10 10:08:29;;;;;;;16.50;11.73;;;;;;;;;;4992456;28;20081;-76
2024/03/10 10:10:58;;;;;;;16.42;11.38;;;;;;;;;;4987728;28;20499;-77
2024/03/10 10:13:27;;;;;;;15.43;11.13;;;;;;;;;;4992571;28;20085;-76
2024/03/10 10:15:52;;;;;;;14.57;11.25;;;;;;;;;;4992157;28;20395;-77
2024/03/10 10:18:18;;;;;;;17.77;11.23;;;;;;;;;;5004875;28;20077;-76
2024/03/10 10:20:47;;;;;;;15.10;10.98;;;;;;;;;;4992473;28;20038;-76
2024/03/10 10:23:13;;;;;;;13.98;10.68;;;;;;;;;;4992093;28;20042;-76
2024/03/10 10:25:42;;;;;;;16.52;11.70;;;;;;;;;;4988729;28;20476;-76
2024/03/10 10:28:09;;;;;;;14.30;10.65;;;;;;;;;;4990946;28;20129;-77
2024/03/10 10:30:37;;;;;;;17.83;11.43;;;;;;;;;;4988407;28;20614;-77
2024/03/10 10:33:06;;;;;;;14.57;10.88;;;;;;;;;;4994569;28;20045;-77
2024/03/10 10:35:33;;;;;;;15.57;12.50;;;;;;;;;;4990723;28;20498;-77
2024/03/10 10:38:00;;;;;;;14.85;11.70;;;;;;;;;;4992134;28;20527;-77
2024/03/10 10:40:25;;;;;;;15.27;11.13;;;;;;;;;;4995477;28;20022;-77
2024/03/10 10:42:50;;;;;;;15.65;10.82;;;;;;;;;;4992732;28;20393;-76
2024/03/10 10:45:16;;;;;;;17.33;12.27;;;;;;;;;;4995779;28;20029;-77
2024/03/10 10:47:41;;;;;;;15.05;10.82;;;;;;;;;;4994221;28;20041;-76
2024/03/10 10:50:14;;;;;;;16.33;11.68;;;;;;;;;;4991756;28;20442;-76
2024/03/10 10:52:41;;;;;;;14.10;9.90;;;;;;;;;;4995662;28;20038;-77
2024/03/10 10:55:07;;;;;;;17.70;11.20;;;;;;;;;;4991478;28;20069;-77
2024/03/10 10:57:33;;;;;;;15.95;11.10;;;;;;;;;;4991778;28;20062;-77
2024/03/10 10:59:59;;;;;;;16.13;11.02;;;;;;;;;;4991480;28;20042;-77
2024/03/10 11:02:25;;;;;;;16.10;11.40;;;;;;;;;;4993328;28;20403;-76
2024/03/10 11:04:53;;;;;;;16.08;11.48;;;;;;;;;;4986767;28;20039;-77
2024/03/10 11:07:18;;;;;;;13.82;10.77;;;;;;;;;;4988255;28;20022;-77
2024/03/10 11:09:44;;;;;;;14.55;11.10;;;;;;;;;;4991457;28;20491;-76
2024/03/10 11:12:16;;;;;;;16.27;11.20;;;;;;;;;;4992707;28;20037;-77
2024/03/10 11:14:42;;;;;;;13.85;10.32;;;;;;;;;;4991374;28;20022;-76
2024/03/10 11:17:16;;;;;;;14.43;10.90;;;;;;;;;;4991332;28;20434;-77
2024/03/10 11:19:51;;;;;;;13.43;10.50;;;;;;;;;;4991409;28;20458;-77
2024/03/10 11:22:27;;;;;;;14.18;10.45;;;;;;;;;;4991424;28;20486;-77
2024/03/10 11:25:09;;;;;;;16.13;11.70;;;;;;;;;;4990819;28;20802;-77
2024/03/10 11:27:42;;;;;;;17.07;11.40;;;;;;;;;;4987907;28;20114;-77
2024/03/10 11:30:26;;;;;;;14.07;11.27;;;;;;;;;;4989735;28;20281;-77
2024/03/10 11:33:02;;;;;;;14.10;10.63;;;;;;;;;;4988880;28;20491;-77
2024/03/10 11:35:27;;;;;;;14.38;10.43;;;;;;;;;;4992164;28;20578;-77
2024/03/10 11:37:57;;;;;;;14.40;10.45;;;;;;;;;;4989741;28;20109;-77
2024/03/10 11:40:22;;;;;;;15.18;10.52;;;;;;;;;;4995844;28;20041;-77
2024/03/10 11:42:47;;;;;;;15.15;10.50;;;;;;;;;;4991796;28;20026;-76
2024/03/10 11:45:13;;;;;;;14.38;10.90;;;;;;;;;;4990635;28;20399;-77
2024/03/10 11:47:39;;;;;;;13.60;11.32;;;;;;;;;;4990927;28;20130;-77
2024/03/10 11:50:07;;;;;;;17.60;11.40;;;;;;;;;;4990798;28;20077;-76
2024/03/10 11:52:32;;;;;;;16.63;11.65;;;;;;;;;;4993110;28;20026;-77
2024/03/10 11:54:58;;;;;;;13.98;10.43;;;;;;;;;;4989187;28;20126;-77
2024/03/10 11:57:24;;;;;;;15.48;11.13;;;;;;;;;;4991380;28;20700;-76
2024/03/10 11:59:50;;;;;;;13.63;11.32;;;;;;;;;;4993919;28;20034;-77
2024/03/10 12:02:15;;;;;;;13.63;10.50;;;;;;;;;;4993685;28;20599;-77
2024/03/10 12:04:41;;;;;;;12.35;9.38;;;;;;;;;;4989023;28;20455;-77
2024/03/10 12:07:07;;;;;;;13.88;9.57;;;;;;;;;;4990451;28;20041;-77
2024/03/10 12:09:33;;;;;;;15.27;10.43;;;;;;;;;;4994365;28;20430;-77
2024/03/10 12:12:10;;;;;;;14.65;10.23;;;;;;;;;;4991244;28;20031;-76
2024/03/10 12:14:41;;;;;;;13.52;9.90;;;;;;;;;;4990551;28;20423;-76
2024/03/10 12:17:13;;;;;;;12.02;9.02;;;;;;;;;;4989123;28;20041;-77
2024/03/10 12:19:39;;;;;;;12.60;9.13;;;;;;;;;;4990747;28;20045;-77
2024/03/10 12:22:05;;;;;;;13.85;9.93;;;;;;;;;;4991987;28;20412;-77
2024/03/10 12:24:32;;;;;;;14.55;10.55;;;;;;;;;;4986697;28;20041;-77
2024/03/10 12:27:03;;;;;;;16.10;10.50;;;;;;;;;;4990373;28;20023;-77
2024/03/10 12:29:28;;;;;;;15.07;10.57;;;;;;;;;;4988612;28;20483;-77
2024/03/10 12:31:54;;;;;;;13.77;10.35;;;;;;;;;;4992740;28;20037;-77
2024/03/10 12:34:19;;;;;;;12.68;8.82;;;;;;;;;;4989077;28;20061;-77
2024/03/10 12:36:44;;;;;;;13.95;9.98;;;;;;;;;;4992613;28;20117;-77
2024/03/10 12:39:11;;;;;;;12.27;9.43;;;;;;;;;;4994284;28;20038;-77
2024/03/10 12:41:36;;;;;;;12.82;9.48;;;;;;;;;;4997011;28;20061;-77
2024/03/10 12:44:03;;;;;;;11.77;7.80;;;;;;;;;;4999256;28;20084;-77
2024/03/10 12:46:28;;;;;;;12.50;9.18;;;;;;;;;;5003856;28;20030;-77
2024/03/10 12:48:54;;;;;;;11.82;8.35;;;;;;;;;;4995634;28;20049;-77
2024/03/10 12:51:19;;;;;;;12.80;9.10;;;;;;;;;;4994538;28;20030;-77
2024/03/10 12:53:45;;;;;;;12.23;8.52;;;;;;;;;;4993877;28;20041;-77
2024/03/10 12:56:12;;;;;;;12.52;8.43;;;;;;;;;;4993619;28;20437;-77
2024/03/10 12:58:38;;;;;;;11.98;8.68;;;;;;;;;;4994270;28;20376;-77
2024/03/10 13:01:03;;;;;;;12.52;8.43;;;;;;;;;;4994053;28;20062;-77
2024/03/10 13:03:29;;;;;;;12.55;8.40;;;;;;;;;;4994626;28;20037;-76
2024/03/10 13:05:55;;;;;;;13.15;9.07;;;;;;;;;;4992191;28;20081;-77
2024/03/10 13:08:23;;;;;;;11.40;7.70;;;;;;;;;;4993889;28;20399;-77
2024/03/10 13:10:48;;;;;;;11.07;8.98;;;;;;;;;;4993655;28;20027;-77
2024/03/10 13:13:14;;;;;;;12.45;9.55;;;;;;;;;;4998764;28;20615;-76
2024/03/10 13:15:40;;;;;;;12.65;8.55;;;;;;;;;;4993514;28;20113;-77
2024/03/10 13:18:10;;;;;;;13.15;8.90;;;;;;;;;;4993570;28;20026;-77
2024/03/10 13:20:36;;;;;;;10.55;7.47;;;;;;;;;;4993562;28;20030;-77
2024/03/10 13:23:02;;;;;;;11.82;8.80;;;;;;;;;;4995207;28;20042;-77
2024/03/10 13:25:27;;;;;;;10.88;7.85;;;;;;;;;;4993292;28;20035;-77
2024/03/10 13:27:52;;;;;;;12.57;8.40;;;;;;;;;;4992458;28;20101;-77
2024/03/10 13:30:18;;;;;;;10.73;7.50;;;;;;;;;;4993163;28;20109;-76
2024/03/10 13:32:44;;;;;;;10.15;7.88;;;;;;;;;;4994448;28;20034;-77
2024/03/10 13:35:10;;;;;;;10.93;7.90;;;;;;;;;;4993047;28;20483;-76
2024/03/10 13:37:35;;;;;;;12.63;7.95;;;;;;;;;;4992011;28;20074;-77
2024/03/10 13:40:04;;;;;;;12.18;8.60;;;;;;;;;;4992968;28;20049;-76
2024/03/10 13:42:29;;;;;;;11.57;7.55;;;;;;;;;;5004767;28;20034;-77
2024/03/10 13:44:55;;;;;;;12.90;8.75;;;;;;;;;;4992917;28;20399;-77
2024/03/10 13:47:20;;;;;;;13.63;9.70;;;;;;;;;;4993910;28;20026;-77
2024/03/10 13:49:45;;;;;;;12.70;9.15;;;;;;;;;;4993003;28;20061;-77
2024/03/10 13:52:14;;;;;;;12.15;8.50;;;;;;;;;;4997990;28;20089;-77
2024/03/10 13:54:41;;;;;;;13.20;9.68;;;;;;;;;;4992563;28;20034;-77
2024/03/10 13:57:06;;;;;;;11.75;8.55;;;;;;;;;;4990391;28;20042;-77
2024/03/10 13:59:35;;;;;;;10.50;8.38;;;;;;;;;;4989690;28;20038;-77
2024/03/10 14:02:00;;;;;;;12.95;9.32;;;;;;;;;;4993669;28;20033;-77
2024/03/10 14:04:26;;;;;;;11.60;8.63;;;;;;;;;;4992729;28;20077;-77
2024/03/10 14:06:51;;;;;;;11.75;9.25;;;;;;;;;;4988954;28;20037;-76
2024/03/10 14:09:17;;;;;;;11.65;8.32;;;;;;;;;;4990641;28;20033;-76
2024/03/10 14:11:42;;;;;;;11.15;8.25;;;;;;;;;;4983262;28;20030;-76
2024/03/10 14:14:07;;;;;;;14.88;9.45;;;;;;;;;;4993429;28;20905;-76
2024/03/10 14:16:32;;;;;;;12.32;8.88;;;;;;;;;;4991239;28;20117;-77
2024/03/10 14:18:58;;;;;;;11.43;8.23;;;;;;;;;;4991318;28;20124;-77
2024/03/10 14:21:25;;;;;;;10.95;8.07;;;;;;;;;;4993504;28;20030;-76
2024/03/10 14:23:50;;;;;;;13.23;8.75;;;;;;;;;;4993468;28;20403;-77
2024/03/10 14:26:18;;;;;;;12.77;9.13;;;;;;;;;;4992276;28;20037;-76
2024/03/10 14:28:44;;;;;;;10.77;8.15;;;;;;;;;;4992442;28;20022;-76
2024/03/10 14:31:10;;;;;;;13.82;9.07;;;;;;;;;;4989720;28;20049;-76
2024/03/10 14:33:35;;;;;;;14.48;9.95;;;;;;;;;;4989703;28;20034;-76